sensor_id;sensor_type;location;lat;lon;timestamp;temperature;humidity
40123;DHT22;25832;45.490;4.912;2024-02-16T00:01:41;12.70;98.20
40123;DHT22;25832;45.490;4.912;2024-02-16T00:04:07;12.70;98.10
40123;DHT22;25832;45.490;4.912;2024-02-16T00:06:33;12.70;98.00
40123;DHT22;25832;45.490;4.912;2024-02-16T00:08:59;12.70;98.20
40123;DHT22;25832;45.490;4.912;2024-02-16T00:11:25;12.80;98.10
40123;DHT22;25832;45.490;4.912;2024-02-16T00:13:50;12.70;98.40
40123;DHT22;25832;45.490;4.912;2024-02-16T00:16:16;12.70;99.30
40123;DHT22;25832;45.490;4.912;2024-02-16T00:18:43;12.70;99.70
40123;DHT22;25832;45.490;4.912;2024-02-16T00:21:09;12.70;99.60
40123;DHT22;25832;45.490;4.912;2024-02-16T00:23:34;12.60;99.50
40123;DHT22;25832;45.490;4.912;2024-02-16T00:26:01;12.60;99.50
40123;DHT22;25832;45.490;4.912;2024-02-16T00:28:27;12.60;98.80
40123;DHT22;25832;45.490;4.912;2024-02-16T00:30:52;12.60;98.70
40123;DHT22;25832;45.490;4.912;2024-02-16T00:33:18;12.70;98.70
40123;DHT22;25832;45.490;4.912;2024-02-16T00:35:44;12.70;98.00
40123;DHT22;25832;45.490;4.912;2024-02-16T00:38:13;12.70;98.00
40123;DHT22;25832;45.490;4.912;2024-02-16T00:40:38;12.70;97.90
40123;DHT22;25832;45.490;4.912;2024-02-16T00:43:09;12.90;97.50
40123;DHT22;25832;45.490;4.912;2024-02-16T00:45:35;12.90;97.70
40123;DHT22;25832;45.490;4.912;2024-02-16T00:48:01;12.80;99.90
40123;DHT22;25832;45.490;4.912;2024-02-16T00:50:27;12.70;99.90
40123;DHT22;25832;45.490;4.912;2024-02-16T00:52:53;12.60;99.90
40123;DHT22;25832;45.490;4.912;2024-02-16T00:55:19;12.60;99.60
40123;DHT22;25832;45.490;4.912;2024-02-16T00:57:45;12.60;99.40
40123;DHT22;25832;45.490;4.912;2024-02-16T01:00:11;12.60;99.10
40123;DHT22;25832;45.490;4.912;2024-02-16T01:02:37;12.60;99.20
40123;DHT22;25832;45.490;4.912;2024-02-16T01:05:04;12.70;98.40
40123;DHT22;25832;45.490;4.912;2024-02-16T01:07:29;12.70;98.30
40123;DHT22;25832;45.490;4.912;2024-02-16T01:09:56;12.80;98.40
40123;DHT22;25832;45.490;4.912;2024-02-16T01:12:22;12.70;98.00
40123;DHT22;25832;45.490;4.912;2024-02-16T01:14:48;12.80;98.00
40123;DHT22;25832;45.490;4.912;2024-02-16T01:17:13;12.80;97.90
40123;DHT22;25832;45.490;4.912;2024-02-16T01:19:39;12.80;97.40
40123;DHT22;25832;45.490;4.912;2024-02-16T01:22:05;12.90;97.10
40123;DHT22;25832;45.490;4.912;2024-02-16T01:24:31;12.90;97.30
40123;DHT22;25832;45.490;4.912;2024-02-16T01:26:57;12.90;97.00
40123;DHT22;25832;45.490;4.912;2024-02-16T01:29:23;12.90;97.20
40123;DHT22;25832;45.490;4.912;2024-02-16T01:31:49;12.90;96.80
40123;DHT22;25832;45.490;4.912;2024-02-16T01:34:14;12.90;96.60
40123;DHT22;25832;45.490;4.912;2024-02-16T01:36:40;12.90;96.60
40123;DHT22;25832;45.490;4.912;2024-02-16T01:39:06;13.00;96.10
40123;DHT22;25832;45.490;4.912;2024-02-16T01:41:33;13.00;96.00
40123;DHT22;25832;45.490;4.912;2024-02-16T01:43:58;13.00;96.00
40123;DHT22;25832;45.490;4.912;2024-02-16T01:46:24;13.00;95.90
40123;DHT22;25832;45.490;4.912;2024-02-16T01:48:52;13.00;95.80
40123;DHT22;25832;45.490;4.912;2024-02-16T01:51:18;13.00;95.70
40123;DHT22;25832;45.490;4.912;2024-02-16T01:53:44;13.00;95.60
40123;DHT22;25832;45.490;4.912;2024-02-16T01:56:10;13.00;95.40
40123;DHT22;25832;45.490;4.912;2024-02-16T01:58:36;13.00;95.50
40123;DHT22;25832;45.490;4.912;2024-02-16T02:01:01;13.00;95.30
40123;DHT22;25832;45.490;4.912;2024-02-16T02:03:27;13.00;95.40
40123;DHT22;25832;45.490;4.912;2024-02-16T02:05:53;13.00;95.40
40123;DHT22;25832;45.490;4.912;2024-02-16T02:08:21;13.00;95.50
40123;DHT22;25832;45.490;4.912;2024-02-16T02:10:47;13.00;95.60
40123;DHT22;25832;45.490;4.912;2024-02-16T02:13:12;12.90;95.90
40123;DHT22;25832;45.490;4.912;2024-02-16T02:15:38;13.00;95.90
40123;DHT22;25832;45.490;4.912;2024-02-16T02:18:04;13.00;96.30
40123;DHT22;25832;45.490;4.912;2024-02-16T02:20:29;12.90;96.10
40123;DHT22;25832;45.490;4.912;2024-02-16T02:22:55;12.90;96.30
40123;DHT22;25832;45.490;4.912;2024-02-16T02:25:21;12.90;96.50
40123;DHT22;25832;45.490;4.912;2024-02-16T02:27:47;12.90;96.80
40123;DHT22;25832;45.490;4.912;2024-02-16T02:30:12;12.80;97.70
40123;DHT22;25832;45.490;4.912;2024-02-16T02:32:38;12.80;98.50
40123;DHT22;25832;45.490;4.912;2024-02-16T02:35:05;12.70;99.40
40123;DHT22;25832;45.490;4.912;2024-02-16T02:37:31;12.60;99.90
40123;DHT22;25832;45.490;4.912;2024-02-16T02:39:57;12.50;99.90
40123;DHT22;25832;45.490;4.912;2024-02-16T02:42:22;12.40;99.90
40123;DHT22;25832;45.490;4.912;2024-02-16T02:44:48;12.30;99.90
40123;DHT22;25832;45.490;4.912;2024-02-16T02:47:18;12.30;99.90
40123;DHT22;25832;45.490;4.912;2024-02-16T02:49:44;12.20;99.90
40123;DHT22;25832;45.490;4.912;2024-02-16T02:52:10;12.20;99.90
40123;DHT22;25832;45.490;4.912;2024-02-16T02:54:35;12.20;99.90
40123;DHT22;25832;45.490;4.912;2024-02-16T02:57:02;12.20;99.90
40123;DHT22;25832;45.490;4.912;2024-02-16T02:59:27;12.20;99.90
40123;DHT22;25832;45.490;4.912;2024-02-16T03:01:53;12.30;99.90
40123;DHT22;25832;45.490;4.912;2024-02-16T03:04:19;12.20;99.90
40123;DHT22;25832;45.490;4.912;2024-02-16T03:06:44;12.20;99.90
40123;DHT22;25832;45.490;4.912;2024-02-16T03:09:11;12.20;99.90
40123;DHT22;25832;45.490;4.912;2024-02-16T03:11:38;12.20;99.90
40123;DHT22;25832;45.490;4.912;2024-02-16T03:14:04;12.20;99.90
40123;DHT22;25832;45.490;4.912;2024-02-16T03:16:31;12.20;99.90
40123;DHT22;25832;45.490;4.912;2024-02-16T03:18:57;12.20;99.90
40123;DHT22;25832;45.490;4.912;2024-02-16T03:21:22;12.20;99.90
40123;DHT22;25832;45.490;4.912;2024-02-16T03:23:48;12.20;99.90
40123;DHT22;25832;45.490;4.912;2024-02-16T03:26:18;12.20;99.90
40123;DHT22;25832;45.490;4.912;2024-02-16T03:28:47;12.20;99.90
40123;DHT22;25832;45.490;4.912;2024-02-16T03:31:21;12.20;99.90
40123;DHT22;25832;45.490;4.912;2024-02-16T03:33:48;12.10;99.90
40123;DHT22;25832;45.490;4.912;2024-02-16T03:36:14;12.10;99.90
40123;DHT22;25832;45.490;4.912;2024-02-16T03:38:47;12.10;99.90
40123;DHT22;25832;45.490;4.912;2024-02-16T03:41:19;12.10;99.90
40123;DHT22;25832;45.490;4.912;2024-02-16T03:43:45;12.10;99.90
40123;DHT22;25832;45.490;4.912;2024-02-16T03:46:10;12.10;99.90
40123;DHT22;25832;45.490;4.912;2024-02-16T03:48:36;12.00;99.90
40123;DHT22;25832;45.490;4.912;2024-02-16T03:51:02;12.00;99.90
40123;DHT22;25832;45.490;4.912;2024-02-16T03:53:31;12.00;99.90
40123;DHT22;25832;45.490;4.912;2024-02-16T03:55:56;12.10;99.90
40123;DHT22;25832;45.490;4.912;2024-02-16T03:58:22;12.00;99.90
40123;DHT22;25832;45.490;4.912;2024-02-16T04:00:48;12.00;99.90
40123;DHT22;25832;45.490;4.912;2024-02-16T04:03:15;12.00;99.90
40123;DHT22;25832;45.490;4.912;2024-02-16T04:05:40;12.00;99.90
40123;DHT22;25832;45.490;4.912;2024-02-16T04:08:06;11.90;99.90
40123;DHT22;25832;45.490;4.912;2024-02-16T04:10:35;11.90;99.90
40123;DHT22;25832;45.490;4.912;2024-02-16T04:13:01;11.90;99.90
40123;DHT22;25832;45.490;4.912;2024-02-16T04:15:27;11.90;99.90
40123;DHT22;25832;45.490;4.912;2024-02-16T04:17:53;11.90;99.90
40123;DHT22;25832;45.490;4.912;2024-02-16T04:20:19;11.90;99.90
40123;DHT22;25832;45.490;4.912;2024-02-16T04:22:45;11.90;99.90
40123;DHT22;25832;45.490;4.912;2024-02-16T04:25:11;11.90;99.90
40123;DHT22;25832;45.490;4.912;2024-02-16T04:27:37;11.90;99.90
40123;DHT22;25832;45.490;4.912;2024-02-16T04:30:04;11.80;99.90
40123;DHT22;25832;45.490;4.912;2024-02-16T04:32:30;11.90;99.90
40123;DHT22;25832;45.490;4.912;2024-02-16T04:34:56;11.80;99.90
40123;DHT22;25832;45.490;4.912;2024-02-16T04:37:22;11.80;99.90
40123;DHT22;25832;45.490;4.912;2024-02-16T04:39:49;11.90;99.90
40123;DHT22;25832;45.490;4.912;2024-02-16T04:42:14;11.90;99.90
40123;DHT22;25832;45.490;4.912;2024-02-16T04:44:40;11.80;99.90
40123;DHT22;25832;45.490;4.912;2024-02-16T04:47:06;11.80;99.90
40123;DHT22;25832;45.490;4.912;2024-02-16T04:49:32;11.80;99.90
40123;DHT22;25832;45.490;4.912;2024-02-16T04:51:57;11.80;99.90
40123;DHT22;25832;45.490;4.912;2024-02-16T04:54:23;11.80;99.90
40123;DHT22;25832;45.490;4.912;2024-02-16T04:56:49;11.80;99.90
40123;DHT22;25832;45.490;4.912;2024-02-16T04:59:18;11.90;99.90
40123;DHT22;25832;45.490;4.912;2024-02-16T05:01:44;11.80;99.90
40123;DHT22;25832;45.490;4.912;2024-02-16T05:04:13;11.80;99.90
40123;DHT22;25832;45.490;4.912;2024-02-16T05:06:45;11.80;99.90
40123;DHT22;25832;45.490;4.912;2024-02-16T05:09:12;11.80;99.90
40123;DHT22;25832;45.490;4.912;2024-02-16T05:11:37;11.80;99.90
40123;DHT22;25832;45.490;4.912;2024-02-16T05:14:03;11.80;99.90
40123;DHT22;25832;45.490;4.912;2024-02-16T05:16:29;11.70;99.90
40123;DHT22;25832;45.490;4.912;2024-02-16T05:18:58;11.70;99.90
40123;DHT22;25832;45.490;4.912;2024-02-16T05:21:23;11.70;99.90
40123;DHT22;25832;45.490;4.912;2024-02-16T05:23:49;11.70;99.90
40123;DHT22;25832;45.490;4.912;2024-02-16T05:26:15;11.70;99.90
40123;DHT22;25832;45.490;4.912;2024-02-16T05:28:41;11.70;99.90
40123;DHT22;25832;45.490;4.912;2024-02-16T05:31:16;11.70;99.90
40123;DHT22;25832;45.490;4.912;2024-02-16T05:33:44;11.60;99.90
40123;DHT22;25832;45.490;4.912;2024-02-16T05:36:10;11.60;99.90
40123;DHT22;25832;45.490;4.912;2024-02-16T05:38:36;11.60;99.90
40123;DHT22;25832;45.490;4.912;2024-02-16T05:41:06;11.60;99.90
40123;DHT22;25832;45.490;4.912;2024-02-16T05:43:33;11.60;99.90
40123;DHT22;25832;45.490;4.912;2024-02-16T05:45:59;11.60;99.90
40123;DHT22;25832;45.490;4.912;2024-02-16T05:48:25;11.60;99.90
40123;DHT22;25832;45.490;4.912;2024-02-16T05:50:52;11.50;99.90
40123;DHT22;25832;45.490;4.912;2024-02-16T05:53:18;11.50;99.90
40123;DHT22;25832;45.490;4.912;2024-02-16T05:55:44;11.50;99.90
40123;DHT22;25832;45.490;4.912;2024-02-16T05:58:10;11.50;99.90
40123;DHT22;25832;45.490;4.912;2024-02-16T06:00:37;11.50;99.90
40123;DHT22;25832;45.490;4.912;2024-02-16T06:03:03;11.40;99.90
40123;DHT22;25832;45.490;4.912;2024-02-16T06:05:28;11.40;99.90
40123;DHT22;25832;45.490;4.912;2024-02-16T06:07:54;11.40;99.90
40123;DHT22;25832;45.490;4.912;2024-02-16T06:10:22;11.40;99.90
40123;DHT22;25832;45.490;4.912;2024-02-16T06:12:48;11.40;99.90
40123;DHT22;25832;45.490;4.912;2024-02-16T06:15:14;11.30;99.90
40123;DHT22;25832;45.490;4.912;2024-02-16T06:17:40;11.30;99.90
40123;DHT22;25832;45.490;4.912;2024-02-16T06:20:06;11.20;99.90
40123;DHT22;25832;45.490;4.912;2024-02-16T06:22:35;11.20;99.90
40123;DHT22;25832;45.490;4.912;2024-02-16T06:25:01;11.20;99.90
40123;DHT22;25832;45.490;4.912;2024-02-16T06:27:26;11.20;99.90
40123;DHT22;25832;45.490;4.912;2024-02-16T06:29:52;11.10;99.90
40123;DHT22;25832;45.490;4.912;2024-02-16T06:32:17;11.20;99.90
40123;DHT22;25832;45.490;4.912;2024-02-16T06:34:43;11.10;99.90
40123;DHT22;25832;45.490;4.912;2024-02-16T06:37:11;11.10;99.90
40123;DHT22;25832;45.490;4.912;2024-02-16T06:39:37;11.10;99.90
40123;DHT22;25832;45.490;4.912;2024-02-16T06:42:02;11.10;99.90
40123;DHT22;25832;45.490;4.912;2024-02-16T06:44:29;11.10;99.90
40123;DHT22;25832;45.490;4.912;2024-02-16T06:46:55;11.00;99.90
40123;DHT22;25832;45.490;4.912;2024-02-16T06:49:20;11.00;99.90
40123;DHT22;25832;45.490;4.912;2024-02-16T06:51:47;11.00;99.90
40123;DHT22;25832;45.490;4.912;2024-02-16T06:54:13;11.00;99.90
40123;DHT22;25832;45.490;4.912;2024-02-16T06:56:39;11.00;99.90
40123;DHT22;25832;45.490;4.912;2024-02-16T06:59:05;11.00;99.90
40123;DHT22;25832;45.490;4.912;2024-02-16T07:01:31;10.90;99.90
40123;DHT22;25832;45.490;4.912;2024-02-16T07:03:57;10.90;99.90
40123;DHT22;25832;45.490;4.912;2024-02-16T07:06:23;10.90;99.90
40123;DHT22;25832;45.490;4.912;2024-02-16T07:08:48;10.90;99.90
40123;DHT22;25832;45.490;4.912;2024-02-16T07:11:14;10.90;99.90
40123;DHT22;25832;45.490;4.912;2024-02-16T07:13:40;10.80;99.90
40123;DHT22;25832;45.490;4.912;2024-02-16T07:16:08;10.80;99.90
40123;DHT22;25832;45.490;4.912;2024-02-16T07:18:33;10.80;99.90
40123;DHT22;25832;45.490;4.912;2024-02-16T07:20:59;10.90;99.90
40123;DHT22;25832;45.490;4.912;2024-02-16T07:23:25;10.90;99.90
40123;DHT22;25832;45.490;4.912;2024-02-16T07:25:51;10.80;99.90
40123;DHT22;25832;45.490;4.912;2024-02-16T07:28:20;10.90;99.90
40123;DHT22;25832;45.490;4.912;2024-02-16T07:30:46;10.90;99.90
40123;DHT22;25832;45.490;4.912;2024-02-16T07:33:11;10.90;99.90
40123;DHT22;25832;45.490;4.912;2024-02-16T07:35:37;10.90;99.90
40123;DHT22;25832;45.490;4.912;2024-02-16T07:38:04;10.90;99.90
40123;DHT22;25832;45.490;4.912;2024-02-16T07:40:30;10.90;99.90
40123;DHT22;25832;45.490;4.912;2024-02-16T07:42:56;10.90;99.90
40123;DHT22;25832;45.490;4.912;2024-02-16T07:45:22;10.90;99.90
40123;DHT22;25832;45.490;4.912;2024-02-16T07:47:48;11.00;99.90
40123;DHT22;25832;45.490;4.912;2024-02-16T07:50:17;11.00;99.90
40123;DHT22;25832;45.490;4.912;2024-02-16T07:52:43;11.00;99.90
40123;DHT22;25832;45.490;4.912;2024-02-16T07:55:09;11.00;99.90
40123;DHT22;25832;45.490;4.912;2024-02-16T07:57:34;11.00;99.90
40123;DHT22;25832;45.490;4.912;2024-02-16T08:00:00;11.00;99.90
40123;DHT22;25832;45.490;4.912;2024-02-16T08:02:26;11.00;99.90
40123;DHT22;25832;45.490;4.912;2024-02-16T08:04:52;11.10;99.90
40123;DHT22;25832;45.490;4.912;2024-02-16T08:07:17;11.10;99.90
40123;DHT22;25832;45.490;4.912;2024-02-16T08:09:47;11.10;99.90
40123;DHT22;25832;45.490;4.912;2024-02-16T08:12:13;11.20;99.90
40123;DHT22;25832;45.490;4.912;2024-02-16T08:14:39;11.10;99.90
40123;DHT22;25832;45.490;4.912;2024-02-16T08:17:06;11.20;99.90
40123;DHT22;25832;45.490;4.912;2024-02-16T08:19:33;11.20;99.90
40123;DHT22;25832;45.490;4.912;2024-02-16T08:22:00;11.20;99.90
40123;DHT22;25832;45.490;4.912;2024-02-16T08:24:26;11.20;99.90
40123;DHT22;25832;45.490;4.912;2024-02-16T08:26:52;11.20;99.90
40123;DHT22;25832;45.490;4.912;2024-02-16T08:29:18;11.20;99.90
40123;DHT22;25832;45.490;4.912;2024-02-16T08:31:43;11.20;99.90
40123;DHT22;25832;45.490;4.912;2024-02-16T08:34:09;11.30;99.90
40123;DHT22;25832;45.490;4.912;2024-02-16T08:36:36;11.30;99.90
40123;DHT22;25832;45.490;4.912;2024-02-16T08:39:03;11.40;99.90
40123;DHT22;25832;45.490;4.912;2024-02-16T08:41:28;11.30;99.90
40123;DHT22;25832;45.490;4.912;2024-02-16T08:43:54;11.40;99.90
40123;DHT22;25832;45.490;4.912;2024-02-16T08:46:22;11.50;99.90
40123;DHT22;25832;45.490;4.912;2024-02-16T08:48:48;11.50;99.90
40123;DHT22;25832;45.490;4.912;2024-02-16T08:51:14;11.50;99.90
40123;DHT22;25832;45.490;4.912;2024-02-16T08:53:40;11.60;99.90
40123;DHT22;25832;45.490;4.912;2024-02-16T08:56:09;11.60;99.90
40123;DHT22;25832;45.490;4.912;2024-02-16T08:58:37;11.70;99.90
40123;DHT22;25832;45.490;4.912;2024-02-16T09:01:02;11.70;99.90
40123;DHT22;25832;45.490;4.912;2024-02-16T09:03:30;11.70;99.90
40123;DHT22;25832;45.490;4.912;2024-02-16T09:06:03;11.70;99.90
40123;DHT22;25832;45.490;4.912;2024-02-16T09:08:29;11.70;99.90
40123;DHT22;25832;45.490;4.912;2024-02-16T09:10:59;11.70;99.90
40123;DHT22;25832;45.490;4.912;2024-02-16T09:13:25;11.80;99.90
40123;DHT22;25832;45.490;4.912;2024-02-16T09:15:50;11.80;99.90
40123;DHT22;25832;45.490;4.912;2024-02-16T09:18:17;11.80;99.90
40123;DHT22;25832;45.490;4.912;2024-02-16T09:20:43;11.90;99.90
40123;DHT22;25832;45.490;4.912;2024-02-16T09:23:09;11.80;99.90
40123;DHT22;25832;45.490;4.912;2024-02-16T09:25:35;11.90;99.90
40123;DHT22;25832;45.490;4.912;2024-02-16T09:28:01;11.90;99.90
40123;DHT22;25832;45.490;4.912;2024-02-16T09:30:27;11.90;99.90
40123;DHT22;25832;45.490;4.912;2024-02-16T09:32:53;11.90;99.90
40123;DHT22;25832;45.490;4.912;2024-02-16T09:35:19;12.00;99.90
40123;DHT22;25832;45.490;4.912;2024-02-16T09:37:45;12.00;99.90
40123;DHT22;25832;45.490;4.912;2024-02-16T09:40:14;12.00;99.90
40123;DHT22;25832;45.490;4.912;2024-02-16T09:42:40;12.00;99.90
40123;DHT22;25832;45.490;4.912;2024-02-16T09:45:07;12.00;99.90
40123;DHT22;25832;45.490;4.912;2024-02-16T09:47:33;12.00;99.90
40123;DHT22;25832;45.490;4.912;2024-02-16T09:50:00;12.00;99.90
40123;DHT22;25832;45.490;4.912;2024-02-16T09:52:26;12.10;99.90
40123;DHT22;25832;45.490;4.912;2024-02-16T09:54:52;12.20;99.90
40123;DHT22;25832;45.490;4.912;2024-02-16T09:57:18;12.30;99.90
40123;DHT22;25832;45.490;4.912;2024-02-16T09:59:44;12.30;99.90
40123;DHT22;25832;45.490;4.912;2024-02-16T10:02:10;12.40;99.90
40123;DHT22;25832;45.490;4.912;2024-02-16T10:04:36;12.40;99.90
40123;DHT22;25832;45.490;4.912;2024-02-16T10:07:02;12.50;99.90
40123;DHT22;25832;45.490;4.912;2024-02-16T10:09:28;12.50;99.90
40123;DHT22;25832;45.490;4.912;2024-02-16T10:11:55;12.60;99.90
40123;DHT22;25832;45.490;4.912;2024-02-16T10:14:20;12.70;99.90
40123;DHT22;25832;45.490;4.912;2024-02-16T10:16:47;12.70;99.90
40123;DHT22;25832;45.490;4.912;2024-02-16T10:19:13;12.70;99.90
40123;DHT22;25832;45.490;4.912;2024-02-16T10:21:40;12.80;99.90
40123;DHT22;25832;45.490;4.912;2024-02-16T10:24:07;12.90;99.90
40123;DHT22;25832;45.490;4.912;2024-02-16T10:26:37;13.00;99.90
40123;DHT22;25832;45.490;4.912;2024-02-16T10:29:05;13.00;99.90
40123;DHT22;25832;45.490;4.912;2024-02-16T10:31:31;13.10;99.90
40123;DHT22;25832;45.490;4.912;2024-02-16T10:34:03;13.10;99.90
40123;DHT22;25832;45.490;4.912;2024-02-16T10:36:33;13.20;99.90
40123;DHT22;25832;45.490;4.912;2024-02-16T10:38:59;13.40;99.90
40123;DHT22;25832;45.490;4.912;2024-02-16T10:41:28;13.50;99.90
40123;DHT22;25832;45.490;4.912;2024-02-16T10:43:54;13.70;99.90
40123;DHT22;25832;45.490;4.912;2024-02-16T10:46:22;13.80;99.90
40123;DHT22;25832;45.490;4.912;2024-02-16T10:48:47;13.90;99.90
40123;DHT22;25832;45.490;4.912;2024-02-16T10:51:15;14.10;99.90
40123;DHT22;25832;45.490;4.912;2024-02-16T10:53:42;14.10;99.90
40123;DHT22;25832;45.490;4.912;2024-02-16T10:56:08;14.20;99.90
40123;DHT22;25832;45.490;4.912;2024-02-16T10:58:34;14.20;99.90
40123;DHT22;25832;45.490;4.912;2024-02-16T11:01:08;14.30;99.90
40123;DHT22;25832;45.490;4.912;2024-02-16T11:03:38;14.30;99.90
40123;DHT22;25832;45.490;4.912;2024-02-16T11:06:15;14.40;99.90
40123;DHT22;25832;45.490;4.912;2024-02-16T11:08:42;14.40;99.90
40123;DHT22;25832;45.490;4.912;2024-02-16T11:11:08;14.50;99.90
40123;DHT22;25832;45.490;4.912;2024-02-16T11:13:37;14.50;99.90
40123;DHT22;25832;45.490;4.912;2024-02-16T11:16:06;14.50;99.90
40123;DHT22;25832;45.490;4.912;2024-02-16T11:18:37;14.60;99.90
40123;DHT22;25832;45.490;4.912;2024-02-16T11:21:04;14.50;99.90
40123;DHT22;25832;45.490;4.912;2024-02-16T11:23:34;14.60;99.90
40123;DHT22;25832;45.490;4.912;2024-02-16T11:26:01;14.60;99.90
40123;DHT22;25832;45.490;4.912;2024-02-16T11:28:32;14.60;99.90
40123;DHT22;25832;45.490;4.912;2024-02-16T11:30:58;14.60;99.90
40123;DHT22;25832;45.490;4.912;2024-02-16T11:33:24;14.60;99.90
40123;DHT22;25832;45.490;4.912;2024-02-16T11:35:59;14.50;99.90
40123;DHT22;25832;45.490;4.912;2024-02-16T11:38:26;14.60;99.90
40123;DHT22;25832;45.490;4.912;2024-02-16T11:41:05;14.60;99.90
40123;DHT22;25832;45.490;4.912;2024-02-16T11:43:31;14.70;99.90
40123;DHT22;25832;45.490;4.912;2024-02-16T11:46:10;14.70;99.90
40123;DHT22;25832;45.490;4.912;2024-02-16T11:48:35;14.70;99.90
40123;DHT22;25832;45.490;4.912;2024-02-16T11:51:03;14.80;99.90
40123;DHT22;25832;45.490;4.912;2024-02-16T11:53:30;14.90;99.90
40123;DHT22;25832;45.490;4.912;2024-02-16T11:55:56;14.90;99.90
40123;DHT22;25832;45.490;4.912;2024-02-16T11:58:22;14.90;99.90
40123;DHT22;25832;45.490;4.912;2024-02-16T12:00:49;15.00;99.90
40123;DHT22;25832;45.490;4.912;2024-02-16T12:03:23;15.10;99.90
40123;DHT22;25832;45.490;4.912;2024-02-16T12:05:59;15.10;99.90
40123;DHT22;25832;45.490;4.912;2024-02-16T12:08:32;15.20;99.90
40123;DHT22;25832;45.490;4.912;2024-02-16T12:10:59;15.30;99.90
40123;DHT22;25832;45.490;4.912;2024-02-16T12:13:25;15.30;99.90
40123;DHT22;25832;45.490;4.912;2024-02-16T12:15:51;15.30;99.90
40123;DHT22;25832;45.490;4.912;2024-02-16T12:18:24;15.40;99.90
40123;DHT22;25832;45.490;4.912;2024-02-16T12:23:24;15.50;99.90
40123;DHT22;25832;45.490;4.912;2024-02-16T12:25:50;15.60;99.90
40123;DHT22;25832;45.490;4.912;2024-02-16T12:28:15;15.70;99.90
40123;DHT22;25832;45.490;4.912;2024-02-16T12:30:41;15.80;99.90
40123;DHT22;25832;45.490;4.912;2024-02-16T12:33:07;15.90;99.90
40123;DHT22;25832;45.490;4.912;2024-02-16T12:35:32;16.10;99.90
40123;DHT22;25832;45.490;4.912;2024-02-16T12:38:00;16.20;99.90
40123;DHT22;25832;45.490;4.912;2024-02-16T12:40:25;16.30;99.90
40123;DHT22;25832;45.490;4.912;2024-02-16T12:42:52;16.30;99.90
40123;DHT22;25832;45.490;4.912;2024-02-16T12:45:17;16.40;99.90
40123;DHT22;25832;45.490;4.912;2024-02-16T12:47:43;16.50;99.90
40123;DHT22;25832;45.490;4.912;2024-02-16T12:50:09;16.60;99.90
40123;DHT22;25832;45.490;4.912;2024-02-16T12:52:34;16.80;99.90
40123;DHT22;25832;45.490;4.912;2024-02-16T12:55:06;16.90;99.90
40123;DHT22;25832;45.490;4.912;2024-02-16T12:57:32;17.00;99.30
40123;DHT22;25832;45.490;4.912;2024-02-16T12:59:58;17.10;99.90
40123;DHT22;25832;45.490;4.912;2024-02-16T13:02:23;17.20;99.90
40123;DHT22;25832;45.490;4.912;2024-02-16T13:04:49;17.30;99.20
40123;DHT22;25832;45.490;4.912;2024-02-16T13:07:15;17.50;98.20
40123;DHT22;25832;45.490;4.912;2024-02-16T13:09:41;17.50;97.80
40123;DHT22;25832;45.490;4.912;2024-02-16T13:12:07;17.50;96.50
40123;DHT22;25832;45.490;4.912;2024-02-16T13:14:33;17.50;97.30
40123;DHT22;25832;45.490;4.912;2024-02-16T13:16:58;17.40;98.10
40123;DHT22;25832;45.490;4.912;2024-02-16T13:19:24;17.50;97.60
40123;DHT22;25832;45.490;4.912;2024-02-16T13:21:50;17.50;98.10
40123;DHT22;25832;45.490;4.912;2024-02-16T13:24:16;17.50;97.60
40123;DHT22;25832;45.490;4.912;2024-02-16T13:26:41;17.50;97.20
40123;DHT22;25832;45.490;4.912;2024-02-16T13:29:07;17.30;97.00
40123;DHT22;25832;45.490;4.912;2024-02-16T13:31:33;17.20;98.60
40123;DHT22;25832;45.490;4.912;2024-02-16T13:33:59;17.10;98.50
40123;DHT22;25832;45.490;4.912;2024-02-16T13:36:24;17.20;98.20
40123;DHT22;25832;45.490;4.912;2024-02-16T13:38:50;17.20;98.90
40123;DHT22;25832;45.490;4.912;2024-02-16T13:41:16;17.10;97.30
40123;DHT22;25832;45.490;4.912;2024-02-16T13:43:41;17.00;97.60
40123;DHT22;25832;45.490;4.912;2024-02-16T13:46:07;16.90;98.50
40123;DHT22;25832;45.490;4.912;2024-02-16T13:48:33;16.90;99.30
40123;DHT22;25832;45.490;4.912;2024-02-16T13:51:02;17.00;98.90
40123;DHT22;25832;45.490;4.912;2024-02-16T13:53:28;17.00;99.10
40123;DHT22;25832;45.490;4.912;2024-02-16T13:55:55;17.00;99.10
40123;DHT22;25832;45.490;4.912;2024-02-16T13:58:21;17.10;98.20
40123;DHT22;25832;45.490;4.912;2024-02-16T14:00:47;17.10;98.10
40123;DHT22;25832;45.490;4.912;2024-02-16T14:03:14;17.10;98.40
40123;DHT22;25832;45.490;4.912;2024-02-16T14:05:40;17.10;98.10
40123;DHT22;25832;45.490;4.912;2024-02-16T14:08:07;17.10;98.80
40123;DHT22;25832;45.490;4.912;2024-02-16T14:10:35;17.10;98.90
40123;DHT22;25832;45.490;4.912;2024-02-16T14:13:01;17.10;98.50
40123;DHT22;25832;45.490;4.912;2024-02-16T14:15:26;17.10;99.20
40123;DHT22;25832;45.490;4.912;2024-02-16T14:17:52;17.00;99.90
40123;DHT22;25832;45.490;4.912;2024-02-16T14:20:18;17.00;99.60
40123;DHT22;25832;45.490;4.912;2024-02-16T14:22:43;17.00;99.90
40123;DHT22;25832;45.490;4.912;2024-02-16T14:25:10;17.00;99.90
40123;DHT22;25832;45.490;4.912;2024-02-16T14:27:37;17.10;99.90
40123;DHT22;25832;45.490;4.912;2024-02-16T14:30:04;17.10;97.90
40123;DHT22;25832;45.490;4.912;2024-02-16T14:32:30;17.00;97.80
40123;DHT22;25832;45.490;4.912;2024-02-16T14:34:56;17.00;96.80
40123;DHT22;25832;45.490;4.912;2024-02-16T14:37:22;16.90;97.10
40123;DHT22;25832;45.490;4.912;2024-02-16T14:39:47;16.80;95.80
40123;DHT22;25832;45.490;4.912;2024-02-16T14:42:14;16.70;96.20
40123;DHT22;25832;45.490;4.912;2024-02-16T14:44:39;16.70;97.00
40123;DHT22;25832;45.490;4.912;2024-02-16T14:47:05;16.60;97.70
40123;DHT22;25832;45.490;4.912;2024-02-16T14:49:30;16.50;96.90
40123;DHT22;25832;45.490;4.912;2024-02-16T14:51:57;16.50;97.50
40123;DHT22;25832;45.490;4.912;2024-02-16T14:54:23;16.50;97.50
40123;DHT22;25832;45.490;4.912;2024-02-16T14:56:52;16.50;97.10
40123;DHT22;25832;45.490;4.912;2024-02-16T14:59:18;16.40;97.10
40123;DHT22;25832;45.490;4.912;2024-02-16T15:01:44;16.40;97.70
40123;DHT22;25832;45.490;4.912;2024-02-16T15:04:09;16.30;97.50
40123;DHT22;25832;45.490;4.912;2024-02-16T15:06:35;16.30;98.20
40123;DHT22;25832;45.490;4.912;2024-02-16T15:09:02;16.30;98.10
40123;DHT22;25832;45.490;4.912;2024-02-16T15:11:30;16.30;98.00
40123;DHT22;25832;45.490;4.912;2024-02-16T15:13:56;16.30;98.40
40123;DHT22;25832;45.490;4.912;2024-02-16T15:16:21;16.20;98.20
40123;DHT22;25832;45.490;4.912;2024-02-16T15:18:47;16.10;98.40
40123;DHT22;25832;45.490;4.912;2024-02-16T15:21:13;16.10;98.50
40123;DHT22;25832;45.490;4.912;2024-02-16T15:23:38;16.00;98.40
40123;DHT22;25832;45.490;4.912;2024-02-16T15:26:04;16.00;98.30
40123;DHT22;25832;45.490;4.912;2024-02-16T15:28:33;16.00;98.20